sensor_id;sensor_type;location;lat;lon;timestamp;pressure;altitude;pressure_sealevel;temperature;humidity
4085;BME280;2057;50.858;6.572;2023-03-14T00:02:10;97931.31;;;11.10;90.08
4085;BME280;2057;50.858;6.572;2023-03-14T00:04:36;97933.78;;;10.93;90.55
4085;BME280;2057;50.858;6.572;2023-03-14T00:07:02;97946.53;;;11.09;90.03
4085;BME280;2057;50.858;6.572;2023-03-14T00:09:27;97942.34;;;11.14;88.99
4085;BME280;2057;50.858;6.572;2023-03-14T00:11:55;97948.22;;;11.04;90.10
4085;BME280;2057;50.858;6.572;2023-03-14T00:14:20;97974.41;;;10.99;90.51
4085;BME280;2057;50.858;6.572;2023-03-14T00:16:48;97993.03;;;10.98;90.82
4085;BME280;2057;50.858;6.572;2023-03-14T00:19:14;98003.22;;;11.00;90.48
4085;BME280;2057;50.858;6.572;2023-03-14T00:21:39;98018.47;;;11.05;89.94
4085;BME280;2057;50.858;6.572;2023-03-14T00:24:06;98017.59;;;11.06;90.50
4085;BME280;2057;50.858;6.572;2023-03-14T00:26:33;98015.88;;;10.97;91.16
4085;BME280;2057;50.858;6.572;2023-03-14T00:29:01;98025.25;;;11.09;89.77
4085;BME280;2057;50.858;6.572;2023-03-14T00:31:26;98017.66;;;11.13;89.61
4085;BME280;2057;50.858;6.572;2023-03-14T00:33:56;98015.09;;;11.09;90.23
4085;BME280;2057;50.858;6.572;2023-03-14T00:36:24;98018.47;;;11.08;90.96
4085;BME280;2057;50.858;6.572;2023-03-14T00:38:50;98021.09;;;11.23;89.92
4085;BME280;2057;50.858;6.572;2023-03-14T00:41:21;98026.16;;;11.17;90.38
4085;BME280;2057;50.858;6.572;2023-03-14T00:43:50;98022.75;;;11.12;91.44
4085;BME280;2057;50.858;6.572;2023-03-14T00:46:16;98027.81;;;11.12;92.00
4085;BME280;2057;50.858;6.572;2023-03-14T00:48:44;98032.06;;;11.13;92.70
4085;BME280;2057;50.858;6.572;2023-03-14T00:51:10;98039.63;;;11.05;95.25
4085;BME280;2057;50.858;6.572;2023-03-14T00:53:39;98049.59;;;10.82;99.50
4085;BME280;2057;50.858;6.572;2023-03-14T00:56:07;98073.03;;;10.56;100.00
4085;BME280;2057;50.858;6.572;2023-03-14T00:58:38;98068.28;;;10.05;100.00
4085;BME280;2057;50.858;6.572;2023-03-14T01:01:09;98056.31;;;9.92;100.00
4085;BME280;2057;50.858;6.572;2023-03-14T01:03:36;98051.81;;;9.71;100.00
4085;BME280;2057;50.858;6.572;2023-03-14T01:06:13;98047.53;;;9.65;100.00
4085;BME280;2057;50.858;6.572;2023-03-14T01:08:40;98039.81;;;9.59;100.00
4085;BME280;2057;50.858;6.572;2023-03-14T01:11:09;98038.16;;;9.61;100.00
4085;BME280;2057;50.858;6.572;2023-03-14T01:13:35;98027.09;;;9.53;100.00
4085;BME280;2057;50.858;6.572;2023-03-14T01:16:03;98021.03;;;9.41;100.00
4085;BME280;2057;50.858;6.572;2023-03-14T01:18:32;98026.06;;;9.40;100.00
4085;BME280;2057;50.858;6.572;2023-03-14T01:20:57;98011.78;;;9.45;100.00
4085;BME280;2057;50.858;6.572;2023-03-14T01:23:25;97999.88;;;9.38;100.00
4085;BME280;2057;50.858;6.572;2023-03-14T01:25:50;97997.34;;;9.38;100.00
4085;BME280;2057;50.858;6.572;2023-03-14T01:28:15;97988.91;;;9.37;100.00
4085;BME280;2057;50.858;6.572;2023-03-14T01:30:41;97999.03;;;9.36;100.00
4085;BME280;2057;50.858;6.572;2023-03-14T01:33:06;98004.13;;;9.39;100.00
4085;BME280;2057;50.858;6.572;2023-03-14T01:35:34;98006.59;;;9.34;100.00
4085;BME280;2057;50.858;6.572;2023-03-14T01:37:59;98003.16;;;9.29;100.00
4085;BME280;2057;50.858;6.572;2023-03-14T01:40:25;97994.72;;;9.30;100.00
4085;BME280;2057;50.858;6.572;2023-03-14T01:43:06;97993.88;;;9.30;100.00
4085;BME280;2057;50.858;6.572;2023-03-14T01:51:01;97987.91;;;9.26;100.00
4085;BME280;2057;50.858;6.572;2023-03-14T01:53:30;97978.59;;;9.22;100.00
4085;BME280;2057;50.858;6.572;2023-03-14T01:55:55;97970.06;;;9.17;100.00
4085;BME280;2057;50.858;6.572;2023-03-14T01:58:27;97975.94;;;9.14;100.00
4085;BME280;2057;50.858;6.572;2023-03-14T02:00:54;97976.63;;;9.04;100.00
4085;BME280;2057;50.858;6.572;2023-03-14T02:03:22;97982.53;;;9.01;100.00
4085;BME280;2057;50.858;6.572;2023-03-14T02:05:49;97990.94;;;9.00;100.00
4085;BME280;2057;50.858;6.572;2023-03-14T02:08:18;97976.63;;;9.01;100.00
4085;BME280;2057;50.858;6.572;2023-03-14T02:10:48;97967.13;;;8.86;100.00
4085;BME280;2057;50.858;6.572;2023-03-14T02:13:15;97974.72;;;8.86;100.00
4085;BME280;2057;50.858;6.572;2023-03-14T02:15:42;97965.41;;;8.83;100.00
4085;BME280;2057;50.858;6.572;2023-03-14T02:18:08;97983.13;;;8.83;100.00
4085;BME280;2057;50.858;6.572;2023-03-14T02:23:08;97989.97;;;8.92;100.00
4085;BME280;2057;50.858;6.572;2023-03-14T02:25:48;97987.44;;;8.90;100.00
4085;BME280;2057;50.858;6.572;2023-03-14T02:28:18;97971.31;;;8.84;100.00
4085;BME280;2057;50.858;6.572;2023-03-14T02:30:44;97965.47;;;8.88;100.00
4085;BME280;2057;50.858;6.572;2023-03-14T02:33:15;97966.25;;;8.85;100.00
4085;BME280;2057;50.858;6.572;2023-03-14T02:38:22;97954.47;;;8.84;100.00
4085;BME280;2057;50.858;6.572;2023-03-14T02:40:50;97950.31;;;8.91;100.00
4085;BME280;2057;50.858;6.572;2023-03-14T02:43:15;97955.50;;;9.00;100.00
4085;BME280;2057;50.858;6.572;2023-03-14T02:45:46;97952.97;;;8.99;100.00
4085;BME280;2057;50.858;6.572;2023-03-14T02:48:25;97949.59;;;9.00;100.00
4085;BME280;2057;50.858;6.572;2023-03-14T02:50:56;97937.78;;;8.97;100.00
4085;BME280;2057;50.858;6.572;2023-03-14T02:53:31;97932.78;;;9.03;100.00
4085;BME280;2057;50.858;6.572;2023-03-14T02:55:57;97926.91;;;9.07;100.00
4085;BME280;2057;50.858;6.572;2023-03-14T02:58:26;97926.09;;;9.07;100.00
4085;BME280;2057;50.858;6.572;2023-03-14T03:00:52;97927.69;;;9.02;100.00
4085;BME280;2057;50.858;6.572;2023-03-14T03:03:20;97935.31;;;9.03;100.00
4085;BME280;2057;50.858;6.572;2023-03-14T03:05:53;97917.63;;;9.06;100.00
4085;BME280;2057;50.858;6.572;2023-03-14T03:08:24;97925.22;;;9.06;100.00
4085;BME280;2057;50.858;6.572;2023-03-14T03:10:52;97916.78;;;9.07;100.00
4085;BME280;2057;50.858;6.572;2023-03-14T03:13:18;97916.09;;;9.18;100.00
4085;BME280;2057;50.858;6.572;2023-03-14T03:15:43;97905.19;;;9.22;100.00
4085;BME280;2057;50.858;6.572;2023-03-14T03:18:09;97895.13;;;9.30;100.00
4085;BME280;2057;50.858;6.572;2023-03-14T03:20:35;97893.63;;;9.46;100.00
4085;BME280;2057;50.858;6.572;2023-03-14T03:23:02;97899.63;;;9.52;100.00
4085;BME280;2057;50.858;6.572;2023-03-14T03:25:28;97898.78;;;9.53;100.00
4085;BME280;2057;50.858;6.572;2023-03-14T03:27:56;97904.66;;;9.49;100.00
4085;BME280;2057;50.858;6.572;2023-03-14T03:30:24;97897.84;;;9.45;100.00
4085;BME280;2057;50.858;6.572;2023-03-14T03:32:52;97902.16;;;9.52;100.00
4085;BME280;2057;50.858;6.572;2023-03-14T03:35:17;97899.53;;;9.46;100.00
4085;BME280;2057;50.858;6.572;2023-03-14T03:37:42;97898.81;;;9.55;100.00
4085;BME280;2057;50.858;6.572;2023-03-14T03:40:09;97892.03;;;9.54;100.00
4085;BME280;2057;50.858;6.572;2023-03-14T03:42:39;97898.75;;;9.49;100.00
4085;BME280;2057;50.858;6.572;2023-03-14T03:45:05;97892.06;;;9.57;100.00
4085;BME280;2057;50.858;6.572;2023-03-14T03:47:31;97898.81;;;9.55;100.00
4085;BME280;2057;50.858;6.572;2023-03-14T03:49:58;97895.31;;;9.45;100.00
4085;BME280;2057;50.858;6.572;2023-03-14T03:52:24;97890.22;;;9.40;100.00
4085;BME280;2057;50.858;6.572;2023-03-14T03:54:49;97890.09;;;9.31;100.00
4085;BME280;2057;50.858;6.572;2023-03-14T03:57:14;97891.72;;;9.26;100.00
4085;BME280;2057;50.858;6.572;2023-03-14T03:59:40;97879.88;;;9.23;100.00
4085;BME280;2057;50.858;6.572;2023-03-14T04:02:06;97890.84;;;9.24;100.00
4085;BME280;2057;50.858;6.572;2023-03-14T04:04:32;97893.44;;;9.29;100.00
4085;BME280;2057;50.858;6.572;2023-03-14T04:06:57;97886.72;;;9.32;100.00
4085;BME280;2057;50.858;6.572;2023-03-14T04:09:22;97879.06;;;9.24;100.00
4085;BME280;2057;50.858;6.572;2023-03-14T04:11:48;97887.53;;;9.26;100.00
4085;BME280;2057;50.858;6.572;2023-03-14T04:14:13;97878.19;;;9.24;100.00
4085;BME280;2057;50.858;6.572;2023-03-14T04:16:38;97883.19;;;9.18;100.00
4085;BME280;2057;50.858;6.572;2023-03-14T04:19:04;97875.59;;;9.19;100.00
4085;BME280;2057;50.858;6.572;2023-03-14T04:21:29;97869.66;;;9.16;100.00
4085;BME280;2057;50.858;6.572;2023-03-14T04:23:54;97872.22;;;9.19;100.00
4085;BME280;2057;50.858;6.572;2023-03-14T04:26:22;97871.34;;;9.14;100.00
4085;BME280;2057;50.858;6.572;2023-03-14T04:28:48;97873.06;;;9.18;100.00
4085;BME280;2057;50.858;6.572;2023-03-14T04:31:19;97857.81;;;9.13;100.00
4085;BME280;2057;50.858;6.572;2023-03-14T04:33:47;97852.81;;;9.15;100.00
4085;BME280;2057;50.858;6.572;2023-03-14T04:36:13;97851.88;;;9.11;100.00
4085;BME280;2057;50.858;6.572;2023-03-14T04:38:42;97849.41;;;9.13;100.00
4085;BME280;2057;50.858;6.572;2023-03-14T04:41:07;97853.69;;;9.20;100.00
4085;BME280;2057;50.858;6.572;2023-03-14T04:43:33;97848.56;;;9.17;100.00
4085;BME280;2057;50.858;6.572;2023-03-14T04:45:58;97858.66;;;9.12;100.00
4085;BME280;2057;50.858;6.572;2023-03-14T04:48:26;97848.56;;;9.14;100.00
4085;BME280;2057;50.858;6.572;2023-03-14T04:50:52;97842.75;;;9.24;100.00
4085;BME280;2057;50.858;6.572;2023-03-14T04:53:18;97841.91;;;9.23;100.00
4085;BME280;2057;50.858;6.572;2023-03-14T04:55:51;97846.09;;;9.20;100.00
4085;BME280;2057;50.858;6.572;2023-03-14T04:58:17;97841.81;;;9.16;100.00
4085;BME280;2057;50.858;6.572;2023-03-14T05:00:51;97829.97;;;9.12;100.00
4085;BME280;2057;50.858;6.572;2023-03-14T05:03:17;97829.97;;;9.10;100.00
4085;BME280;2057;50.858;6.572;2023-03-14T05:05:44;97830.81;;;9.10;100.00
4085;BME280;2057;50.858;6.572;2023-03-14T05:08:10;97819.81;;;9.08;100.00
4085;BME280;2057;50.858;6.572;2023-03-14T05:10:35;97824.97;;;9.15;100.00
4085;BME280;2057;50.858;6.572;2023-03-14T05:13:01;97823.31;;;9.20;100.00
4085;BME280;2057;50.858;6.572;2023-03-14T05:15:26;97820.78;;;9.20;100.00
4085;BME280;2057;50.858;6.572;2023-03-14T05:17:57;97814.91;;;9.22;100.00
4085;BME280;2057;50.858;6.572;2023-03-14T05:20:22;97821.63;;;9.20;100.00
4085;BME280;2057;50.858;6.572;2023-03-14T05:22:47;97814.03;;;9.20;100.00
4085;BME280;2057;50.858;6.572;2023-03-14T05:25:15;97818.09;;;9.06;100.00
4085;BME280;2057;50.858;6.572;2023-03-14T05:27:40;97817.31;;;9.10;100.00
4085;BME280;2057;50.858;6.572;2023-03-14T05:30:06;97824.81;;;9.04;100.00
4085;BME280;2057;50.858;6.572;2023-03-14T05:32:34;97826.56;;;9.11;100.00
4085;BME280;2057;50.858;6.572;2023-03-14T05:34:59;97819.78;;;9.07;100.00
4085;BME280;2057;50.858;6.572;2023-03-14T05:37:28;97819.84;;;9.13;100.00
4085;BME280;2057;50.858;6.572;2023-03-14T05:39:53;97818.09;;;9.04;100.00
4085;BME280;2057;50.858;6.572;2023-03-14T05:42:19;97822.34;;;9.08;100.00
4085;BME280;2057;50.858;6.572;2023-03-14T05:44:44;97815.56;;;9.07;100.00
4085;BME280;2057;50.858;6.572;2023-03-14T05:47:10;97810.56;;;9.09;100.00
4085;BME280;2057;50.858;6.572;2023-03-14T05:49:35;97814.78;;;9.10;100.00
4085;BME280;2057;50.858;6.572;2023-03-14T05:52:00;97807.16;;;9.07;100.00
4085;BME280;2057;50.858;6.572;2023-03-14T05:54:26;97808.03;;;9.09;100.00
4085;BME280;2057;50.858;6.572;2023-03-14T05:56:51;97802.97;;;9.10;100.00
4085;BME280;2057;50.858;6.572;2023-03-14T05:59:16;97802.13;;;9.12;100.00
4085;BME280;2057;50.858;6.572;2023-03-14T06:01:44;97799.59;;;9.12;100.00
4085;BME280;2057;50.858;6.572;2023-03-14T06:04:10;97794.44;;;9.02;100.00
4085;BME280;2057;50.858;6.572;2023-03-14T06:06:35;97784.38;;;9.05;100.00
4085;BME280;2057;50.858;6.572;2023-03-14T06:09:00;97795.28;;;9.01;100.00
4085;BME280;2057;50.858;6.572;2023-03-14T06:11:26;97791.13;;;9.08;100.00
4085;BME280;2057;50.858;6.572;2023-03-14T06:13:51;97794.50;;;9.08;100.00
4085;BME280;2057;50.858;6.572;2023-03-14T06:16:16;97794.53;;;9.10;100.00
4085;BME280;2057;50.858;6.572;2023-03-14T06:18:42;97801.25;;;9.08;100.00
4085;BME280;2057;50.858;6.572;2023-03-14T06:21:08;97795.38;;;9.10;100.00
4085;BME280;2057;50.858;6.572;2023-03-14T06:23:33;97804.66;;;9.13;100.00
4085;BME280;2057;50.858;6.572;2023-03-14T06:25:58;97806.38;;;9.13;100.00
4085;BME280;2057;50.858;6.572;2023-03-14T06:28:24;97797.91;;;9.09;100.00
4085;BME280;2057;50.858;6.572;2023-03-14T06:30:50;97801.25;;;9.08;100.00
4085;BME280;2057;50.858;6.572;2023-03-14T06:33:15;97797.03;;;9.08;100.00
4085;BME280;2057;50.858;6.572;2023-03-14T06:35:40;97800.44;;;9.10;100.00
4085;BME280;2057;50.858;6.572;2023-03-14T06:38:06;97809.78;;;9.15;100.00
4085;BME280;2057;50.858;6.572;2023-03-14T06:40:33;97797.13;;;9.18;100.00
4085;BME280;2057;50.858;6.572;2023-03-14T06:42:59;97804.78;;;9.22;100.00
4085;BME280;2057;50.858;6.572;2023-03-14T06:45:24;97807.34;;;9.29;100.00
4085;BME280;2057;50.858;6.572;2023-03-14T06:47:49;97810.81;;;9.35;100.00
4085;BME280;2057;50.858;6.572;2023-03-14T06:50:15;97809.16;;;9.37;100.00
4085;BME280;2057;50.858;6.572;2023-03-14T06:52:41;97814.22;;;9.37;100.00
4085;BME280;2057;50.858;6.572;2023-03-14T06:55:11;97811.72;;;9.44;100.00
4085;BME280;2057;50.858;6.572;2023-03-14T06:57:36;97811.78;;;9.48;100.00
4085;BME280;2057;50.858;6.572;2023-03-14T07:00:03;97817.75;;;9.56;100.00
4085;BME280;2057;50.858;6.572;2023-03-14T07:02:29;97809.34;;;9.59;100.00
4085;BME280;2057;50.858;6.572;2023-03-14T07:04:55;97808.59;;;9.68;100.00
4085;BME280;2057;50.858;6.572;2023-03-14T07:07:20;97822.16;;;9.78;100.00
4085;BME280;2057;50.858;6.572;2023-03-14T07:09:45;97808.72;;;9.83;100.00
4085;BME280;2057;50.858;6.572;2023-03-14T07:12:11;97818.06;;;9.89;100.00
4085;BME280;2057;50.858;6.572;2023-03-14T07:14:36;97818.00;;;9.86;100.00
4085;BME280;2057;50.858;6.572;2023-03-14T07:17:01;97826.50;;;9.86;100.00
4085;BME280;2057;50.858;6.572;2023-03-14T07:19:27;97824.00;;;9.91;100.00
4085;BME280;2057;50.858;6.572;2023-03-14T07:21:52;97835.88;;;9.98;100.00
4085;BME280;2057;50.858;6.572;2023-03-14T07:24:20;97834.22;;;10.03;100.00
4085;BME280;2057;50.858;6.572;2023-03-14T07:26:45;97840.16;;;10.07;100.00
4085;BME280;2057;50.858;6.572;2023-03-14T07:29:10;97834.28;;;10.10;100.00
4085;BME280;2057;50.858;6.572;2023-03-14T07:31:36;97841.91;;;10.16;100.00
4085;BME280;2057;50.858;6.572;2023-03-14T07:34:01;97831.78;;;10.16;100.00
4085;BME280;2057;50.858;6.572;2023-03-14T07:36:26;97845.31;;;10.18;100.00
4085;BME280;2057;50.858;6.572;2023-03-14T07:38:52;97850.44;;;10.24;100.00
4085;BME280;2057;50.858;6.572;2023-03-14T07:41:17;97855.53;;;10.30;100.00
4085;BME280;2057;50.858;6.572;2023-03-14T07:43:43;97855.56;;;10.36;100.00
4085;BME280;2057;50.858;6.572;2023-03-14T07:46:10;97859.03;;;10.42;100.00
4085;BME280;2057;50.858;6.572;2023-03-14T07:48:35;97853.09;;;10.41;100.00
4085;BME280;2057;50.858;6.572;2023-03-14T07:51:01;97865.72;;;10.33;100.00
4085;BME280;2057;50.858;6.572;2023-03-14T07:53:26;97847.97;;;10.35;100.00
4085;BME280;2057;50.858;6.572;2023-03-14T07:55:53;97854.69;;;10.33;100.00
4085;BME280;2057;50.858;6.572;2023-03-14T07:58:19;97859.81;;;10.34;100.00
4085;BME280;2057;50.858;6.572;2023-03-14T08:00:44;97860.63;;;10.36;100.00
4085;BME280;2057;50.858;6.572;2023-03-14T08:03:10;97870.84;;;10.40;100.00
4085;BME280;2057;50.858;6.572;2023-03-14T08:05:36;97866.63;;;10.40;100.00
4085;BME280;2057;50.858;6.572;2023-03-14T08:08:03;97875.06;;;10.38;100.00
4085;BME280;2057;50.858;6.572;2023-03-14T08:10:28;97868.34;;;10.46;100.00
4085;BME280;2057;50.858;6.572;2023-03-14T08:12:55;97873.41;;;10.44;100.00
4085;BME280;2057;50.858;6.572;2023-03-14T08:15:21;97877.63;;;10.41;100.00
4085;BME280;2057;50.858;6.572;2023-03-14T08:17:50;97882.66;;;10.38;100.00
4085;BME280;2057;50.858;6.572;2023-03-14T08:20:17;97875.94;;;10.46;100.00
4085;BME280;2057;50.858;6.572;2023-03-14T08:22:45;97887.84;;;10.51;100.00
4085;BME280;2057;50.858;6.572;2023-03-14T08:25:13;97884.47;;;10.51;100.00
4085;BME280;2057;50.858;6.572;2023-03-14T08:27:38;97888.69;;;10.54;100.00
4085;BME280;2057;50.858;6.572;2023-03-14T08:30:13;97894.66;;;10.63;100.00
4085;BME280;2057;50.858;6.572;2023-03-14T08:32:39;97888.72;;;10.57;100.00
4085;BME280;2057;50.858;6.572;2023-03-14T08:35:08;97901.31;;;10.44;100.00
4085;BME280;2057;50.858;6.572;2023-03-14T08:37:34;97900.44;;;10.39;100.00
4085;BME280;2057;50.858;6.572;2023-03-14T08:40:00;97908.75;;;10.26;100.00
4085;BME280;2057;50.858;6.572;2023-03-14T08:42:28;97908.63;;;10.10;100.00
4085;BME280;2057;50.858;6.572;2023-03-14T08:44:54;97909.50;;;10.12;100.00
4085;BME280;2057;50.858;6.572;2023-03-14T08:47:19;97905.28;;;10.16;100.00
4085;BME280;2057;50.858;6.572;2023-03-14T08:49:44;97921.38;;;10.19;100.00
4085;BME280;2057;50.858;6.572;2023-03-14T08:52:10;97912.97;;;10.25;100.00
4085;BME280;2057;50.858;6.572;2023-03-14T08:54:38;97925.63;;;10.24;100.00
4085;BME280;2057;50.858;6.572;2023-03-14T08:57:04;97931.50;;;10.18;100.00
4085;BME280;2057;50.858;6.572;2023-03-14T08:59:29;97933.22;;;10.20;100.00
4085;BME280;2057;50.858;6.572;2023-03-14T09:01:54;97940.78;;;10.19;100.00
4085;BME280;2057;50.858;6.572;2023-03-14T09:04:20;97935.72;;;10.14;100.00
4085;BME280;2057;50.858;6.572;2023-03-14T09:06:45;97941.56;;;10.12;100.00
4085;BME280;2057;50.858;6.572;2023-03-14T09:09:11;97942.31;;;10.01;100.00
4085;BME280;2057;50.858;6.572;2023-03-14T09:11:38;97961.72;;;9.96;100.00
4085;BME280;2057;50.858;6.572;2023-03-14T09:14:03;97955.69;;;9.85;100.00
4085;BME280;2057;50.858;6.572;2023-03-14T09:16:29;97975.00;;;9.75;100.00
4085;BME280;2057;50.858;6.572;2023-03-14T09:18:56;98009.41;;;9.56;100.00
4085;BME280;2057;50.858;6.572;2023-03-14T09:21:25;98071.28;;;9.14;100.00
4085;BME280;2057;50.858;6.572;2023-03-14T09:23:53;98061.41;;;8.29;100.00
4085;BME280;2057;50.858;6.572;2023-03-14T09:26:19;98075.53;;;8.20;100.00
4085;BME280;2057;50.858;6.572;2023-03-14T09:28:47;98080.25;;;8.01;100.00
4085;BME280;2057;50.858;6.572;2023-03-14T09:31:12;98127.06;;;7.83;100.00
4085;BME280;2057;50.858;6.572;2023-03-14T09:33:38;98118.25;;;7.66;100.00
4085;BME280;2057;50.858;6.572;2023-03-14T09:36:04;98130.88;;;7.66;100.00
4085;BME280;2057;50.858;6.572;2023-03-14T09:38:30;98137.66;;;7.67;100.00
4085;BME280;2057;50.858;6.572;2023-03-14T09:41:00;98149.84;;;7.48;100.00
4085;BME280;2057;50.858;6.572;2023-03-14T09:43:29;98153.09;;;7.44;100.00
4085;BME280;2057;50.858;6.572;2023-03-14T09:45:57;98171.31;;;7.31;100.00
4085;BME280;2057;50.858;6.572;2023-03-14T09:48:30;98182.03;;;7.22;100.00
4085;BME280;2057;50.858;6.572;2023-03-14T09:50:58;98193.81;;;7.21;100.00
4085;BME280;2057;50.858;6.572;2023-03-14T09:53:34;98205.41;;;7.15;100.00
4085;BME280;2057;50.858;6.572;2023-03-14T09:56:01;98214.78;;;7.19;100.00
4085;BME280;2057;50.858;6.572;2023-03-14T09:58:27;98230.63;;;7.15;100.00
4085;BME280;2057;50.858;6.572;2023-03-14T10:00:55;98241.41;;;7.09;100.00
4085;BME280;2057;50.858;6.572;2023-03-14T10:03:33;98246.84;;;7.25;100.00
4085;BME280;2057;50.858;6.572;2023-03-14T10:06:02;98266.75;;;7.14;100.00
4085;BME280;2057;50.858;6.572;2023-03-14T10:08:36;98265.75;;;7.07;100.00
4085;BME280;2057;50.858;6.572;2023-03-14T10:11:03;98268.75;;;6.94;100.00
4085;BME280;2057;50.858;6.572;2023-03-14T10:13:31;98274.56;;;6.91;100.00
4085;BME280;2057;50.858;6.572;2023-03-14T10:16:02;98298.78;;;6.84;100.00
4085;BME280;2057;50.858;6.572;2023-03-14T10:18:30;98311.72;;;6.97;100.00
4085;BME280;2057;50.858;6.572;2023-03-14T10:23:33;98320.63;;;7.14;100.00
4085;BME280;2057;50.858;6.572;2023-03-14T10:26:18;98314.00;;;7.19;100.00
4085;BME280;2057;50.858;6.572;2023-03-14T10:28:51;98343.63;;;7.25;100.00
4085;BME280;2057;50.858;6.572;2023-03-14T10:31:17;98342.13;;;7.32;100.00
4085;BME280;2057;50.858;6.572;2023-03-14T10:34:00;98339.66;;;7.35;100.00
4085;BME280;2057;50.858;6.572;2023-03-14T10:36:33;98350.50;;;7.31;100.00
4085;BME280;2057;50.858;6.572;2023-03-14T10:41:54;98376.84;;;7.41;100.00
4085;BME280;2057;50.858;6.572;2023-03-14T10:44:24;98374.31;;;7.41;100.00
4085;BME280;2057;50.858;6.572;2023-03-14T10:46:59;98384.31;;;7.37;100.00
4085;BME280;2057;50.858;6.572;2023-03-14T10:49:31;98382.66;;;7.38;100.00
4085;BME280;2057;50.858;6.572;2023-03-14T10:52:19;98390.63;;;7.53;100.00
4085;BME280;2057;50.858;6.572;2023-03-14T10:54:53;98424.63;;;7.65;100.00
4085;BME280;2057;50.858;6.572;2023-03-14T10:57:20;98406.38;;;7.75;100.00
4085;BME280;2057;50.858;6.572;2023-03-14T10:59:45;98418.41;;;7.85;100.00
4085;BME280;2057;50.858;6.572;2023-03-14T11:05:01;98443.19;;;7.99;100.00
4085;BME280;2057;50.858;6.572;2023-03-14T11:15:27;98481.28;;;7.75;100.00
4085;BME280;2057;50.858;6.572;2023-03-14T11:32:07;98500.88;;;7.83;100.00
4085;BME280;2057;50.858;6.572;2023-03-14T11:34:51;98500.94;;;7.87;100.00
4085;BME280;2057;50.858;6.572;2023-03-14T11:37:25;98504.34;;;7.87;100.00
4085;BME280;2057;50.858;6.572;2023-03-14T11:40:14;98518.97;;;7.67;100.00
4085;BME280;2057;50.858;6.572;2023-03-14T11:42:43;98520.31;;;7.56;100.00
4085;BME280;2057;50.858;6.572;2023-03-14T11:45:22;98567.81;;;7.13;100.00
4085;BME280;2057;50.858;6.572;2023-03-14T11:48:00;98583.81;;;6.36;100.00
4085;BME280;2057;50.858;6.572;2023-03-14T11:50:29;98584.00;;;6.18;100.00
4085;BME280;2057;50.858;6.572;2023-03-14T11:53:04;98594.22;;;5.98;100.00
4085;BME280;2057;50.858;6.572;2023-03-14T11:55:35;98609.66;;;5.85;100.00
4085;BME280;2057;50.858;6.572;2023-03-14T11:58:15;98622.47;;;5.91;100.00
4085;BME280;2057;50.858;6.572;2023-03-14T12:00:43;98636.34;;;5.79;100.00
4085;BME280;2057;50.858;6.572;2023-03-14T12:03:33;98636.78;;;5.92;100.00
4085;BME280;2057;50.858;6.572;2023-03-14T12:06:45;98653.50;;;5.90;100.00
4085;BME280;2057;50.858;6.572;2023-03-14T12:09:06;98657.91;;;5.95;100.00
4085;BME280;2057;50.858;6.572;2023-03-14T12:11:50;98666.09;;;6.11;100.00
4085;BME280;2057;50.858;6.572;2023-03-14T12:14:33;98671.00;;;6.08;100.00
4085;BME280;2057;50.858;6.572;2023-03-14T12:17:17;98673.25;;;6.23;100.00
4085;BME280;2057;50.858;6.572;2023-03-14T12:19:44;98679.50;;;6.34;100.00
4085;BME280;2057;50.858;6.572;2023-03-14T12:25:34;98708.66;;;6.50;100.00
4085;BME280;2057;50.858;6.572;2023-03-14T12:30:34;98718.94;;;6.32;100.00
4085;BME280;2057;50.858;6.572;2023-03-14T12:38:13;98724.25;;;6.40;100.00
4085;BME280;2057;50.858;6.572;2023-03-14T12:43:34;98742.09;;;6.46;100.00
4085;BME280;2057;50.858;6.572;2023-03-14T12:46:21;98752.03;;;6.41;100.00
4085;BME280;2057;50.858;6.572;2023-03-14T12:48:47;98768.69;;;6.38;100.00
4085;BME280;2057;50.858;6.572;2023-03-14T12:51:18;98793.16;;;6.40;100.00
4085;BME280;2057;50.858;6.572;2023-03-14T12:54:26;98790.16;;;6.51;100.00
4085;BME280;2057;50.858;6.572;2023-03-14T13:02:22;98807.13;;;6.55;100.00
4085;BME280;2057;50.858;6.572;2023-03-14T13:04:51;98806.94;;;6.73;100.00
4085;BME280;2057;50.858;6.572;2023-03-14T13:08:01;98824.84;;;6.56;100.00
4085;BME280;2057;50.858;6.572;2023-03-14T13:10:24;98832.31;;;6.53;100.00
4085;BME280;2057;50.858;6.572;2023-03-14T13:13:19;98846.00;;;6.39;100.00
4085;BME280;2057;50.858;6.572;2023-03-14T13:15:49;98843.09;;;6.28;100.00
4085;BME280;2057;50.858;6.572;2023-03-14T13:18:33;98848.13;;;6.28;100.00
4085;BME280;2057;50.858;6.572;2023-03-14T13:21:21;98861.75;;;6.33;100.00
4085;BME280;2057;50.858;6.572;2023-03-14T13:24:26;98864.94;;;6.50;100.00
4085;BME280;2057;50.858;6.572;2023-03-14T13:26:53;98870.13;;;6.53;100.00
4085;BME280;2057;50.858;6.572;2023-03-14T13:29:24;98874.69;;;6.64;100.00
4085;BME280;2057;50.858;6.572;2023-03-14T13:31:53;98879.41;;;6.77;100.00
4085;BME280;2057;50.858;6.572;2023-03-14T13:34:19;98883.66;;;6.78;100.00
4085;BME280;2057;50.858;6.572;2023-03-14T13:36:45;98882.72;;;6.76;99.22
4085;BME280;2057;50.858;6.572;2023-03-14T13:39:17;98903.25;;;6.85;98.82
4085;BME280;2057;50.858;6.572;2023-03-14T13:41:43;98929.50;;;6.47;100.00
4085;BME280;2057;50.858;6.572;2023-03-14T13:44:15;98937.91;;;5.65;100.00
4085;BME280;2057;50.858;6.572;2023-03-14T13:46:41;98954.81;;;5.30;100.00
4085;BME280;2057;50.858;6.572;2023-03-14T13:49:17;98963.09;;;5.10;100.00
4085;BME280;2057;50.858;6.572;2023-03-14T13:51:47;98954.72;;;5.09;100.00
4085;BME280;2057;50.858;6.572;2023-03-14T13:54:18;98962.06;;;5.05;100.00
4085;BME280;2057;50.858;6.572;2023-03-14T13:56:49;98971.31;;;5.06;100.00
4085;BME280;2057;50.858;6.572;2023-03-14T13:59:28;98973.16;;;5.10;100.00
4085;BME280;2057;50.858;6.572;2023-03-14T14:01:56;98980.41;;;5.22;100.00
4085;BME280;2057;50.858;6.572;2023-03-14T14:04:23;98986.13;;;5.17;100.00
4085;BME280;2057;50.858;6.572;2023-03-14T14:06:57;98986.97;;;5.18;100.00
4085;BME280;2057;50.858;6.572;2023-03-14T14:09:29;98998.59;;;5.34;100.00
4085;BME280;2057;50.858;6.572;2023-03-14T14:12:02;98996.72;;;5.30;100.00
4085;BME280;2057;50.858;6.572;2023-03-14T14:14:40;99005.41;;;5.37;100.00
4085;BME280;2057;50.858;6.572;2023-03-14T14:17:12;99022.09;;;5.34;100.00
4085;BME280;2057;50.858;6.572;2023-03-14T14:19:39;99014.19;;;5.45;100.00
4085;BME280;2057;50.858;6.572;2023-03-14T14:22:08;99030.22;;;5.47;100.00
4085;BME280;2057;50.858;6.572;2023-03-14T14:24:38;99036.97;;;5.48;100.00
4085;BME280;2057;50.858;6.572;2023-03-14T14:27:19;99046.09;;;5.46;100.00
4085;BME280;2057;50.858;6.572;2023-03-14T14:32:41;99059.41;;;5.43;100.00